createdAt,value
2018-01-15T00:02:13.875Z,-0.70
2018-01-15T00:04:42.364Z,-0.60
2018-01-15T00:07:10.893Z,-0.60
2018-01-15T00:09:39.414Z,-0.60
2018-01-15T00:12:07.933Z,-0.60
2018-01-15T00:14:37.184Z,-0.70
2018-01-15T00:17:05.495Z,-0.70
2018-01-15T00:19:34.094Z,-0.70
2018-01-15T00:22:03.337Z,-0.80
2018-01-15T00:24:31.860Z,-0.80
2018-01-15T00:27:00.399Z,-0.80
2018-01-15T00:29:28.877Z,-0.80
2018-01-15T00:31:57.400Z,-0.80
2018-01-15T00:34:25.927Z,-0.80
2018-01-15T00:36:54.412Z,-0.80
2018-01-15T00:39:22.942Z,-0.70
2018-01-15T00:41:51.457Z,-0.70
2018-01-15T00:44:19.931Z,-0.70
2018-01-15T00:46:48.423Z,-0.70
2018-01-15T00:49:17.703Z,-0.70
2018-01-15T00:51:46.786Z,-0.70
2018-01-15T00:54:16.130Z,-0.70
2018-01-15T00:56:44.611Z,-0.70
2018-01-15T00:59:13.116Z,-0.70
2018-01-15T01:01:41.638Z,-0.70
2018-01-15T01:04:10.166Z,-0.70
2018-01-15T01:06:38.642Z,-0.80
2018-01-15T01:09:07.168Z,-0.80
2018-01-15T01:11:36.429Z,-0.80
2018-01-15T01:14:04.956Z,-0.80
2018-01-15T01:16:33.501Z,-0.70
2018-01-15T01:19:02.037Z,-0.80
2018-01-15T01:21:30.565Z,-0.80
2018-01-15T01:23:59.200Z,-0.90
2018-01-15T01:26:27.678Z,-0.90
2018-01-15T01:28:56.213Z,-0.90
2018-01-15T01:31:24.707Z,-0.90
2018-01-15T01:33:54.009Z,-0.90
2018-01-15T01:36:23.261Z,-0.90
2018-01-15T01:38:51.790Z,-0.90
2018-01-15T01:41:21.075Z,-1.10
2018-01-15T01:43:50.322Z,-1.10
2018-01-15T01:46:19.110Z,-1.10
2018-01-15T01:48:52.947Z,-1.00
2018-01-15T01:51:22.233Z,-1.00
2018-01-15T01:53:50.729Z,-1.00
2018-01-15T01:56:19.212Z,-1.10
2018-01-15T01:58:47.700Z,-1.00
2018-01-15T02:01:16.210Z,-1.00
2018-01-15T02:03:44.708Z,-1.00
2018-01-15T02:06:13.195Z,-1.10
2018-01-15T02:08:41.661Z,-1.10
2018-01-15T02:11:10.167Z,-1.00
2018-01-15T02:13:38.636Z,-1.00
2018-01-15T02:16:07.106Z,-1.00
2018-01-15T02:18:35.591Z,-1.10
2018-01-15T02:21:03.734Z,-1.10
2018-01-15T02:23:33.003Z,-1.10
2018-01-15T02:26:00.801Z,-1.10
2018-01-15T02:28:29.286Z,-1.00
2018-01-15T02:30:57.162Z,-1.00
2018-01-15T02:33:25.655Z,-1.00
2018-01-15T02:35:54.222Z,-1.00
2018-01-15T02:38:22.690Z,-1.10
2018-01-15T02:40:51.180Z,-1.10
2018-01-15T02:43:19.675Z,-1.10
2018-01-15T02:45:48.635Z,-1.10
2018-01-15T02:48:17.877Z,-1.20
2018-01-15T02:50:47.005Z,-1.20
2018-01-15T02:53:16.969Z,-1.30
2018-01-15T02:55:45.459Z,-1.40
2018-01-15T02:58:13.984Z,-1.30
2018-01-15T03:00:43.313Z,-1.40
2018-01-15T03:03:11.845Z,-1.30
2018-01-15T03:05:40.332Z,-1.40
2018-01-15T03:08:08.905Z,-1.40
2018-01-15T03:10:37.432Z,-1.40
2018-01-15T03:13:05.965Z,-1.40
2018-01-15T03:15:34.485Z,-1.40
2018-01-15T03:18:03.072Z,-1.40
2018-01-15T03:20:31.603Z,-1.50
2018-01-15T03:23:00.153Z,-1.50
2018-01-15T03:25:28.642Z,-1.50
2018-01-15T03:27:57.190Z,-1.50
2018-01-15T03:30:25.725Z,-1.50
2018-01-15T03:32:54.224Z,-1.50
2018-01-15T03:35:22.757Z,-1.50
2018-01-15T03:37:51.334Z,-1.50
2018-01-15T03:40:19.820Z,-1.50
2018-01-15T03:42:49.252Z,-1.50
2018-01-15T03:45:17.785Z,-1.50
2018-01-15T03:47:46.623Z,-1.50
2018-01-15T03:50:15.238Z,-1.50
2018-01-15T03:52:44.488Z,-1.40
2018-01-15T03:55:13.014Z,-1.40
2018-01-15T03:57:42.304Z,-1.40
2018-01-15T04:00:11.583Z,-1.40
2018-01-15T04:02:40.088Z,-1.40
2018-01-15T04:05:09.372Z,-1.50
2018-01-15T04:07:37.915Z,-1.50
2018-01-15T04:10:06.449Z,-1.50
2018-01-15T04:12:36.731Z,-1.50
2018-01-15T04:15:04.906Z,-1.50
2018-01-15T04:17:33.400Z,-1.50
2018-01-15T04:20:01.921Z,-1.50
2018-01-15T04:22:31.456Z,-1.50
2018-01-15T04:24:59.924Z,-1.50
2018-01-15T04:27:28.402Z,-1.50
2018-01-15T04:29:57.075Z,-1.50
2018-01-15T04:32:26.559Z,-1.50
2018-01-15T04:34:55.851Z,-1.40
2018-01-15T04:37:25.118Z,-1.40
2018-01-15T04:39:53.636Z,-1.40
2018-01-15T04:42:22.884Z,-1.50
2018-01-15T04:44:51.392Z,-1.50
2018-01-15T04:47:19.942Z,-1.50
2018-01-15T04:49:48.730Z,-1.50
2018-01-15T04:52:19.026Z,-1.50
2018-01-15T04:54:47.499Z,-1.50
2018-01-15T04:57:16.283Z,-1.50
2018-01-15T04:59:44.507Z,-1.50
2018-01-15T05:02:12.973Z,-1.50
2018-01-15T05:04:41.451Z,-1.60
2018-01-15T05:07:09.940Z,-1.50
2018-01-15T05:09:38.476Z,-1.50
2018-01-15T05:12:07.008Z,-1.50
2018-01-15T05:14:35.532Z,-1.40
2018-01-15T05:17:04.989Z,-1.40
2018-01-15T05:19:33.508Z,-1.50
2018-01-15T05:22:02.795Z,-1.50
2018-01-15T05:24:31.302Z,-1.50
2018-01-15T05:26:59.825Z,-1.40
2018-01-15T05:29:28.341Z,-1.40
2018-01-15T05:31:57.602Z,-1.30
2018-01-15T05:34:26.153Z,-1.30
2018-01-15T05:36:54.688Z,-1.30
2018-01-15T05:39:23.167Z,-1.30
2018-01-15T05:41:51.692Z,-1.30
2018-01-15T05:44:20.176Z,-1.30
2018-01-15T05:46:48.705Z,-1.30
2018-01-15T05:49:17.791Z,-1.30
2018-01-15T05:51:46.709Z,-1.30
2018-01-15T05:54:16.681Z,-1.30
2018-01-15T05:56:45.158Z,-1.30
2018-01-15T05:59:13.711Z,-1.30
2018-01-15T06:01:42.250Z,-1.30
2018-01-15T06:04:10.774Z,-1.30
2018-01-15T06:06:39.306Z,-1.30
2018-01-15T06:09:07.778Z,-1.30
2018-01-15T06:11:36.261Z,-1.20
2018-01-15T06:14:04.449Z,-1.20
2018-01-15T06:16:33.041Z,-1.20
2018-01-15T06:19:02.300Z,-1.20
2018-01-15T06:21:30.782Z,-1.20
2018-01-15T06:23:59.301Z,-1.20
2018-01-15T06:26:28.609Z,-1.20
2018-01-15T06:28:57.888Z,-1.10
2018-01-15T06:31:26.363Z,-1.10
2018-01-15T06:33:54.863Z,-1.10
2018-01-15T06:36:24.135Z,-1.10
2018-01-15T06:38:52.634Z,-1.10
2018-01-15T06:41:21.935Z,-1.00
2018-01-15T06:43:51.210Z,-1.00
2018-01-15T06:46:19.731Z,-1.00
2018-01-15T06:48:48.900Z,-1.00
2018-01-15T06:51:17.428Z,-1.00
2018-01-15T06:53:45.951Z,-1.00
2018-01-15T06:56:15.854Z,-1.00
2018-01-15T06:58:44.412Z,-1.00
2018-01-15T07:01:12.893Z,-1.00
2018-01-15T07:03:41.390Z,-1.10
2018-01-15T07:06:09.912Z,-1.10
2018-01-15T07:08:39.192Z,-1.10
2018-01-15T07:11:07.686Z,-1.10
2018-01-15T07:13:36.972Z,-1.10
2018-01-15T07:16:05.523Z,-1.10
2018-01-15T07:18:34.059Z,-1.10
2018-01-15T07:21:03.417Z,-1.10
2018-01-15T07:23:31.930Z,-1.10
2018-01-15T07:26:01.225Z,-1.10
2018-01-15T07:28:30.477Z,-1.10
2018-01-15T07:30:59.033Z,-1.10
2018-01-15T07:33:27.500Z,-1.00
2018-01-15T07:35:56.792Z,-1.00
2018-01-15T07:38:26.109Z,-1.00
2018-01-15T07:40:54.619Z,-1.00
2018-01-15T07:43:23.306Z,-1.00
2018-01-15T07:45:51.832Z,-1.00
2018-01-15T07:48:21.085Z,-1.00
2018-01-15T07:50:49.629Z,-1.00
2018-01-15T07:53:18.997Z,-0.90
2018-01-15T07:55:47.522Z,-0.90
2018-01-15T07:58:16.448Z,-0.90
2018-01-15T08:00:44.936Z,-0.90
2018-01-15T08:03:13.447Z,-0.90
2018-01-15T08:05:42.735Z,-0.90
2018-01-15T08:08:11.222Z,-0.90
2018-01-15T08:10:40.488Z,-0.80
2018-01-15T08:13:08.990Z,-0.90
2018-01-15T08:15:37.532Z,-0.90
2018-01-15T08:18:06.006Z,-0.80
2018-01-15T08:20:34.557Z,-0.80
2018-01-15T08:23:03.808Z,-0.80
2018-01-15T08:25:32.719Z,-0.90
2018-01-15T08:28:01.263Z,-0.80
2018-01-15T08:30:30.293Z,-0.80
2018-01-15T08:32:58.812Z,-0.80
2018-01-15T08:35:27.304Z,-0.70
2018-01-15T08:37:55.833Z,-0.70
2018-01-15T08:40:24.331Z,-0.70
2018-01-15T08:42:53.576Z,-0.70
2018-01-15T08:45:22.052Z,-0.70
2018-01-15T08:47:50.674Z,-0.60
2018-01-15T08:50:19.207Z,-0.60
2018-01-15T08:52:48.604Z,-0.60
2018-01-15T08:55:17.196Z,-0.60
2018-01-15T08:57:45.732Z,-0.60
2018-01-15T09:00:14.259Z,-0.60
2018-01-15T09:02:42.759Z,-0.50
2018-01-15T09:05:11.246Z,-0.50
2018-01-15T09:07:39.756Z,-0.50
2018-01-15T09:10:08.280Z,-0.50
2018-01-15T09:12:36.802Z,-0.50
2018-01-15T09:15:05.326Z,-0.50
2018-01-15T09:17:33.811Z,-0.40
2018-01-15T09:20:02.363Z,-0.40
2018-01-15T09:22:31.658Z,-0.40
2018-01-15T09:25:00.151Z,-0.40
2018-01-15T09:27:29.436Z,-0.30
2018-01-15T09:29:57.917Z,-0.30
2018-01-15T09:32:26.434Z,-0.30
2018-01-15T09:34:54.943Z,-0.30
2018-01-15T09:37:23.414Z,-0.30
2018-01-15T09:39:51.937Z,-0.20
2018-01-15T09:42:20.436Z,-0.30
2018-01-15T09:44:49.720Z,-0.20
2018-01-15T09:47:18.928Z,-0.20
2018-01-15T09:49:49.308Z,-0.10
2018-01-15T09:52:18.304Z,-0.10
2018-01-15T09:54:47.587Z,-0.10
2018-01-15T09:57:16.432Z,0.00
2018-01-15T09:59:45.688Z,0.10
2018-01-15T10:02:14.249Z,0.10
2018-01-15T10:04:42.789Z,0.10
2018-01-15T10:07:12.068Z,0.10
2018-01-15T10:09:40.580Z,0.10
2018-01-15T10:12:09.889Z,0.30
2018-01-15T10:14:38.249Z,0.30
2018-01-15T10:17:07.345Z,0.50
2018-01-15T10:19:36.997Z,0.60
2018-01-15T10:22:05.470Z,0.60
2018-01-15T10:24:33.989Z,0.70
2018-01-15T10:27:02.522Z,0.70
2018-01-15T10:29:30.994Z,0.80
2018-01-15T10:31:59.540Z,0.90
2018-01-15T10:34:28.153Z,0.90
2018-01-15T10:36:56.622Z,1.00
2018-01-15T10:39:25.870Z,1.10
2018-01-15T10:41:54.384Z,1.10
2018-01-15T10:44:23.034Z,1.20
2018-01-15T10:46:53.364Z,1.20
2018-01-15T10:49:21.892Z,1.20
2018-01-15T10:51:51.164Z,1.50
2018-01-15T10:54:19.633Z,1.50
2018-01-15T10:56:48.106Z,1.60
2018-01-15T10:59:17.377Z,1.70
2018-01-15T11:01:45.847Z,1.70
2018-01-15T11:04:14.355Z,1.70
2018-01-15T11:06:42.895Z,1.70
2018-01-15T11:09:12.180Z,1.70
2018-01-15T11:11:41.414Z,1.70
2018-01-15T11:14:09.937Z,1.70
2018-01-15T11:16:38.457Z,1.70
2018-01-15T11:19:06.960Z,1.70
2018-01-15T11:21:35.467Z,1.80
2018-01-15T11:24:03.983Z,1.80
2018-01-15T11:26:32.701Z,1.80
2018-01-15T11:29:01.166Z,1.80
2018-01-15T11:31:29.680Z,1.70
2018-01-15T11:33:58.238Z,1.70
2018-01-15T11:36:26.720Z,1.60
2018-01-15T11:38:55.238Z,1.60
2018-01-15T11:41:23.743Z,1.60
2018-01-15T11:43:53.025Z,1.60
2018-01-15T11:46:21.550Z,1.60
2018-01-15T11:48:50.108Z,1.60
2018-01-15T11:51:20.120Z,1.50
2018-01-15T11:53:48.856Z,1.50
2018-01-15T11:56:17.997Z,1.60
2018-01-15T11:58:46.543Z,1.70
2018-01-15T12:01:15.161Z,1.70
2018-01-15T12:03:43.646Z,1.70
2018-01-15T12:06:12.125Z,1.70
2018-01-15T12:08:40.770Z,1.70
2018-01-15T12:11:09.476Z,1.70
2018-01-15T12:13:38.013Z,1.70
2018-01-15T12:16:06.499Z,1.70
2018-01-15T12:18:35.030Z,1.60
2018-01-15T12:21:03.571Z,1.70
2018-01-15T12:23:33.015Z,1.60
2018-01-15T12:26:01.525Z,1.60
2018-01-15T12:28:30.061Z,1.50
2018-01-15T12:30:58.592Z,1.50
2018-01-15T12:33:27.125Z,1.50
2018-01-15T12:35:55.649Z,1.50
2018-01-15T12:38:24.928Z,1.50
2018-01-15T12:40:54.226Z,1.60
2018-01-15T12:43:23.499Z,1.60
2018-01-15T12:45:52.006Z,1.60
2018-01-15T12:48:21.246Z,1.60
2018-01-15T12:50:49.800Z,1.60
2018-01-15T12:53:19.858Z,1.50
2018-01-15T12:55:49.176Z,1.50
2018-01-15T12:58:17.647Z,1.60
2018-01-15T13:00:46.169Z,1.60
2018-01-15T13:03:16.063Z,1.60
2018-01-15T13:05:52.732Z,1.60
2018-01-15T13:08:28.465Z,1.60
2018-01-15T13:10:56.961Z,1.60
2018-01-15T13:13:25.477Z,1.70
2018-01-15T13:15:54.758Z,1.70
2018-01-15T13:18:24.042Z,1.70
2018-01-15T13:20:52.509Z,1.70
2018-01-15T13:23:20.993Z,1.70
2018-01-15T13:25:49.530Z,1.70
2018-01-15T13:28:18.746Z,1.70
2018-01-15T13:30:48.354Z,1.70
2018-01-15T13:33:17.469Z,1.70
2018-01-15T13:35:45.998Z,1.70
2018-01-15T13:38:15.230Z,1.60
2018-01-15T13:40:43.744Z,1.60
2018-01-15T13:43:12.228Z,1.70
2018-01-15T13:45:40.746Z,1.60
2018-01-15T13:48:09.438Z,1.80
2018-01-15T13:50:38.899Z,1.70
2018-01-15T13:53:07.428Z,1.70
2018-01-15T13:55:35.941Z,1.70
2018-01-15T13:58:04.459Z,1.60
2018-01-15T14:00:33.759Z,1.80
2018-01-15T14:03:02.982Z,1.80
2018-01-15T14:05:31.493Z,1.80
2018-01-15T14:08:00.022Z,1.80
2018-01-15T14:10:29.318Z,1.90
2018-01-15T14:12:58.550Z,1.90
2018-01-15T14:15:27.041Z,1.80
2018-01-15T14:17:55.556Z,1.90
2018-01-15T14:20:24.049Z,1.90
2018-01-15T14:22:53.295Z,1.90
2018-01-15T14:25:21.813Z,1.90
2018-01-15T14:27:50.289Z,1.80
2018-01-15T14:30:19.669Z,1.80
2018-01-15T14:32:48.164Z,1.80
2018-01-15T14:35:16.669Z,1.80
2018-01-15T14:37:45.937Z,1.80
2018-01-15T14:40:14.516Z,1.80
2018-01-15T14:42:43.981Z,1.80
2018-01-15T14:45:12.660Z,1.80
2018-01-15T14:47:41.189Z,1.80
2018-01-15T14:50:09.704Z,1.80
2018-01-15T14:52:38.999Z,1.80
2018-01-15T14:55:07.481Z,1.80
2018-01-15T14:57:36.802Z,1.80
2018-01-15T15:00:05.437Z,1.80
2018-01-15T15:02:34.926Z,1.70
2018-01-15T15:05:03.591Z,1.70
2018-01-15T15:07:32.105Z,1.80
2018-01-15T15:10:00.624Z,1.80
2018-01-15T15:12:30.978Z,1.80
2018-01-15T15:14:59.459Z,1.80
2018-01-15T15:17:28.017Z,1.80
2018-01-15T15:19:57.252Z,1.80
2018-01-15T15:22:26.736Z,1.80
2018-01-15T15:24:55.250Z,1.80
2018-01-15T15:27:23.752Z,1.80
2018-01-15T15:29:52.293Z,1.80
2018-01-15T15:32:20.761Z,1.80
2018-01-15T15:34:50.184Z,1.80
2018-01-15T15:37:19.460Z,1.80
2018-01-15T15:39:48.870Z,1.80
2018-01-15T15:42:19.029Z,1.90
2018-01-15T15:44:48.175Z,1.80
2018-01-15T15:47:17.132Z,1.80
2018-01-15T15:49:45.650Z,1.80
2018-01-15T15:52:15.229Z,1.80
2018-01-15T15:54:43.700Z,1.80
2018-01-15T15:57:12.230Z,1.80
2018-01-15T15:59:40.754Z,1.80
2018-01-15T16:02:09.345Z,1.80
2018-01-15T16:04:37.866Z,1.80
2018-01-15T16:07:06.416Z,1.80
2018-01-15T16:09:34.894Z,1.80
2018-01-15T16:12:03.391Z,1.70
2018-01-15T16:14:32.726Z,1.70
2018-01-15T16:17:00.883Z,1.70
2018-01-15T16:19:29.392Z,1.70
2018-01-15T16:22:08.981Z,1.70
2018-01-15T16:24:38.236Z,1.60
2018-01-15T16:27:06.774Z,1.60
2018-01-15T16:29:36.074Z,1.50
2018-01-15T16:32:05.310Z,1.60
2018-01-15T16:34:33.792Z,1.50
2018-01-15T16:37:02.320Z,1.60
2018-01-15T16:39:31.235Z,1.60
2018-01-15T16:41:59.709Z,1.60
2018-01-15T16:44:28.246Z,1.60
2018-01-15T16:46:56.732Z,1.50
2018-01-15T16:49:25.238Z,1.50
2018-01-15T16:51:54.480Z,1.60
2018-01-15T16:54:22.970Z,1.50
2018-01-15T16:56:51.514Z,1.50
2018-01-15T16:59:19.996Z,1.50
2018-01-15T17:01:49.326Z,1.50
2018-01-15T17:04:17.811Z,1.50
2018-01-15T17:06:46.286Z,1.50
2018-01-15T17:09:16.026Z,1.50
2018-01-15T17:11:45.314Z,1.50
2018-01-15T17:14:14.015Z,1.50
2018-01-15T17:16:43.294Z,1.50
2018-01-15T17:19:11.816Z,1.50
2018-01-15T17:21:40.357Z,1.50
2018-01-15T17:24:08.851Z,1.50
2018-01-15T17:26:38.168Z,1.50
2018-01-15T17:29:07.402Z,1.50
2018-01-15T17:31:35.916Z,1.50
2018-01-15T17:34:04.457Z,1.60
2018-01-15T17:36:32.947Z,1.50
2018-01-15T17:39:01.489Z,1.50
2018-01-15T17:41:30.807Z,1.60
2018-01-15T17:43:59.382Z,1.60
2018-01-15T17:46:27.841Z,1.60
2018-01-15T17:48:56.882Z,1.70
2018-01-15T17:51:25.441Z,1.60
2018-01-15T17:53:53.952Z,1.70
2018-01-15T17:56:22.441Z,1.60
2018-01-15T17:58:50.925Z,1.70
2018-01-15T18:01:19.610Z,1.70
2018-01-15T18:03:48.543Z,1.70
2018-01-15T18:06:17.158Z,1.70
2018-01-15T18:08:45.675Z,1.70
2018-01-15T18:11:14.234Z,1.70
2018-01-15T18:13:42.761Z,1.70
2018-01-15T18:16:12.036Z,1.70
2018-01-15T18:18:40.523Z,1.70
2018-01-15T18:21:09.789Z,1.70
2018-01-15T18:23:38.264Z,1.70
2018-01-15T18:26:06.770Z,1.70
2018-01-15T18:28:35.239Z,1.70
2018-01-15T18:31:03.786Z,1.70
2018-01-15T18:33:32.273Z,1.70
2018-01-15T18:36:00.742Z,1.70
2018-01-15T18:38:29.266Z,1.70
2018-01-15T18:40:57.775Z,1.70
2018-01-15T18:43:27.070Z,1.70
2018-01-15T18:45:56.319Z,1.70
2018-01-15T18:48:24.836Z,1.70
2018-01-15T18:50:53.442Z,1.60
2018-01-15T18:53:21.957Z,1.70
2018-01-15T18:55:50.495Z,1.70
2018-01-15T18:58:19.774Z,1.70
2018-01-15T19:00:48.503Z,1.70
2018-01-15T19:03:17.719Z,1.70
2018-01-15T19:05:47.604Z,1.70
2018-01-15T19:08:16.290Z,1.70
2018-01-15T19:10:44.510Z,1.70
2018-01-15T19:13:13.050Z,1.70
2018-01-15T19:15:41.580Z,1.70
2018-01-15T19:18:10.132Z,1.70
2018-01-15T19:20:38.713Z,1.80
2018-01-15T19:23:07.490Z,1.70
2018-01-15T19:25:36.235Z,1.80
2018-01-15T19:28:04.901Z,1.70
2018-01-15T19:30:36.966Z,1.70
2018-01-15T19:33:05.606Z,1.70
2018-01-15T19:35:40.118Z,1.70
2018-01-15T19:38:24.427Z,1.70
2018-01-15T19:40:53.056Z,1.70
2018-01-15T19:43:23.438Z,1.70
2018-01-15T19:45:58.183Z,1.70
2018-01-15T19:48:33.118Z,1.70
2018-01-15T19:51:07.941Z,1.70
2018-01-15T19:53:42.897Z,1.70
2018-01-15T19:56:17.910Z,1.70
2018-01-15T19:58:53.298Z,1.70
2018-01-15T20:01:27.275Z,1.60
2018-01-15T20:04:01.618Z,1.70
2018-01-15T20:06:37.633Z,1.70
2018-01-15T20:09:12.921Z,1.70
2018-01-15T20:11:41.270Z,1.60
2018-01-15T20:14:09.327Z,1.70
2018-01-15T20:16:37.637Z,1.70
2018-01-15T20:19:06.148Z,1.70
2018-01-15T20:21:35.401Z,1.70
2018-01-15T20:24:03.928Z,1.70
2018-01-15T20:26:33.344Z,1.70
2018-01-15T20:29:02.843Z,1.70
2018-01-15T20:31:31.411Z,1.70
2018-01-15T20:34:00.758Z,1.70
2018-01-15T20:36:29.255Z,1.70
2018-01-15T20:38:57.783Z,1.70
2018-01-15T20:41:27.043Z,1.70
2018-01-15T20:43:55.548Z,1.70
2018-01-15T20:46:24.072Z,1.80
2018-01-15T20:48:52.552Z,1.80
2018-01-15T20:51:21.193Z,1.80
2018-01-15T20:53:50.439Z,1.80
2018-01-15T20:56:19.475Z,1.80
2018-01-15T20:58:48.004Z,1.80
2018-01-15T21:01:16.839Z,1.80
2018-01-15T21:03:45.340Z,1.80
2018-01-15T21:06:14.593Z,1.80
2018-01-15T21:08:43.132Z,1.80
2018-01-15T21:11:11.641Z,1.90
2018-01-15T21:13:40.161Z,1.90
2018-01-15T21:16:08.648Z,1.90
2018-01-15T21:18:37.207Z,1.90
2018-01-15T21:21:05.377Z,1.90
2018-01-15T21:23:34.734Z,1.90
2018-01-15T21:26:03.326Z,1.90
2018-01-15T21:28:31.653Z,2.00
2018-01-15T21:31:00.136Z,2.00
2018-01-15T21:33:28.674Z,2.00
2018-01-15T21:35:57.323Z,2.00
2018-01-15T21:38:27.417Z,2.00
2018-01-15T21:40:56.083Z,2.00
2018-01-15T21:43:24.670Z,2.00
2018-01-15T21:45:59.448Z,2.00
2018-01-15T21:48:28.113Z,2.00
2018-01-15T21:50:56.755Z,2.10
2018-01-15T21:53:25.355Z,2.10
2018-01-15T21:55:53.949Z,2.10
2018-01-15T21:58:22.459Z,2.10
2018-01-15T22:00:51.026Z,2.10
2018-01-15T22:03:19.638Z,2.20
2018-01-15T22:05:48.282Z,2.20
2018-01-15T22:08:16.893Z,2.20
2018-01-15T22:10:46.307Z,2.20
2018-01-15T22:13:15.620Z,2.20
2018-01-15T22:15:44.183Z,2.20
2018-01-15T22:18:12.799Z,2.20
2018-01-15T22:20:42.645Z,2.20
2018-01-15T22:23:11.225Z,2.20
2018-01-15T22:25:39.812Z,2.20
2018-01-15T22:28:08.385Z,2.20
2018-01-15T22:30:36.979Z,2.20
2018-01-15T22:33:05.595Z,2.30
2018-01-15T22:35:34.140Z,2.30
2018-01-15T22:38:02.764Z,2.20
2018-01-15T22:40:32.098Z,2.30
2018-01-15T22:43:01.482Z,2.30
2018-01-15T22:45:30.046Z,2.30
2018-01-15T22:47:59.386Z,2.30
2018-01-15T22:50:27.979Z,2.30
2018-01-15T22:52:57.337Z,2.30
2018-01-15T22:55:25.925Z,2.30
2018-01-15T22:57:55.311Z,2.30
2018-01-15T23:00:23.936Z,2.30
2018-01-15T23:02:52.500Z,2.30
2018-01-15T23:05:21.890Z,2.30
2018-01-15T23:07:51.217Z,2.40
2018-01-15T23:10:19.800Z,2.30
2018-01-15T23:12:49.128Z,2.40
2018-01-15T23:15:17.771Z,2.40
2018-01-15T23:17:46.325Z,2.40
2018-01-15T23:20:14.912Z,2.40
2018-01-15T23:22:43.533Z,2.40
2018-01-15T23:25:12.099Z,2.50
2018-01-15T23:27:41.450Z,2.50
2018-01-15T23:30:10.010Z,2.40
2018-01-15T23:32:38.588Z,2.50
2018-01-15T23:35:07.228Z,2.50
2018-01-15T23:37:35.807Z,2.50
2018-01-15T23:40:04.364Z,2.50
2018-01-15T23:42:33.672Z,2.50
2018-01-15T23:47:36.957Z,2.50
2018-01-15T23:50:05.552Z,2.50
2018-01-15T23:52:34.901Z,2.50
2018-01-15T23:55:03.891Z,2.50
2018-01-15T23:57:32.457Z,2.50
